createdAt,value
2019-06-08T00:00:27.282Z,15.35
2019-06-08T00:02:54.339Z,15.25
2019-06-08T00:05:21.421Z,15.25
2019-06-08T00:07:48.484Z,15.22
2019-06-08T00:10:16.919Z,15.12
2019-06-08T00:12:44.067Z,15.12
2019-06-08T00:15:11.255Z,15.14
2019-06-08T00:17:39.230Z,15.05
2019-06-08T00:20:07.217Z,15.02
2019-06-08T00:22:34.267Z,15.02
2019-06-08T00:25:01.363Z,15.08
2019-06-08T00:27:28.445Z,15.09
2019-06-08T00:29:55.540Z,15.09
2019-06-08T00:32:22.694Z,15.09
2019-06-08T00:34:49.777Z,15.08
2019-06-08T00:37:16.844Z,15.12
2019-06-08T00:39:44.245Z,15.09
2019-06-08T00:42:11.354Z,15.12
2019-06-08T00:44:38.503Z,15.05
2019-06-08T00:47:05.611Z,15.06
2019-06-08T00:50:11.634Z,15.11
2019-06-08T00:53:11.309Z,15.18
2019-06-08T00:55:38.389Z,15.18
2019-06-08T00:58:05.500Z,15.18
2019-06-08T01:00:34.687Z,15.14
2019-06-08T01:03:01.750Z,15.14
2019-06-08T01:05:30.189Z,15.18
2019-06-08T01:07:57.466Z,15.24
2019-06-08T01:10:25.537Z,15.24
2019-06-08T01:12:52.739Z,15.27
2019-06-08T01:15:26.921Z,15.29
2019-06-08T01:18:01.566Z,15.34
2019-06-08T01:20:19.363Z,15.41
2019-06-08T01:22:46.548Z,15.42
2019-06-08T01:25:15.270Z,15.51
2019-06-08T01:27:42.321Z,15.61
2019-06-08T01:30:09.399Z,15.64
2019-06-08T01:32:36.568Z,15.71
2019-06-08T01:35:03.962Z,15.70
2019-06-08T01:37:31.266Z,15.71
2019-06-08T01:39:58.433Z,15.74
2019-06-08T01:42:25.573Z,15.79
2019-06-08T01:44:52.652Z,15.83
2019-06-08T01:47:19.741Z,15.83
2019-06-08T01:49:46.805Z,15.86
2019-06-08T01:52:14.247Z,15.89
2019-06-08T01:54:41.295Z,15.81
2019-06-08T01:57:08.363Z,15.86
2019-06-08T01:59:35.423Z,15.87
2019-06-08T02:02:02.502Z,15.89
2019-06-08T02:04:30.037Z,15.94
2019-06-08T02:06:57.244Z,15.92
2019-06-08T02:09:24.605Z,15.90
2019-06-08T02:11:51.713Z,15.89
2019-06-08T02:14:18.773Z,15.91
2019-06-08T02:16:45.857Z,15.93
2019-06-08T02:19:12.916Z,15.98
2019-06-08T02:21:40.016Z,16.02
2019-06-08T02:24:07.082Z,16.03
2019-06-08T02:26:35.204Z,16.04
2019-06-08T02:29:03.710Z,16.01
2019-06-08T02:31:32.702Z,15.98
2019-06-08T02:33:59.729Z,15.96
2019-06-08T02:36:28.662Z,15.96
2019-06-08T02:38:55.779Z,16.00
2019-06-08T02:41:22.872Z,15.98
2019-06-08T02:43:49.946Z,16.01
2019-06-08T02:46:17.001Z,16.03
2019-06-08T02:49:02.331Z,16.01
2019-06-08T02:51:39.044Z,16.08
2019-06-08T02:54:06.144Z,16.32
2019-06-08T02:57:14.004Z,16.27
2019-06-08T03:05:43.858Z,16.22
2019-06-08T03:08:11.358Z,16.20
2019-06-08T03:14:02.154Z,16.13
2019-06-08T03:16:31.111Z,16.11
2019-06-08T03:19:23.836Z,16.07
2019-06-08T03:21:50.910Z,16.09
2019-06-08T03:24:17.971Z,16.09
2019-06-08T03:26:45.018Z,16.06
2019-06-08T03:29:12.091Z,16.07
2019-06-08T03:31:49.725Z,16.08
2019-06-08T03:34:30.828Z,16.13
2019-06-08T03:36:57.975Z,16.14
2019-06-08T03:39:25.052Z,16.10
2019-06-08T03:41:52.094Z,16.13
2019-06-08T03:44:58.526Z,16.15
2019-06-08T03:47:25.610Z,16.14
2019-06-08T03:49:57.418Z,16.18
2019-06-08T03:52:21.637Z,16.21
2019-06-08T03:54:48.689Z,16.19
2019-06-08T03:57:15.764Z,16.16
2019-06-08T03:59:45.585Z,16.20
2019-06-08T04:02:12.878Z,16.19
2019-06-08T04:04:41.744Z,16.21
2019-06-08T04:07:08.970Z,16.21
2019-06-08T04:09:37.659Z,16.19
2019-06-08T04:12:04.790Z,16.15
2019-06-08T04:14:31.853Z,16.12
2019-06-08T04:16:58.904Z,16.16
2019-06-08T04:19:25.999Z,16.16
2019-06-08T04:21:53.056Z,16.18
2019-06-08T04:24:20.130Z,16.22
2019-06-08T04:26:47.337Z,16.23
2019-06-08T04:29:14.427Z,16.27
2019-06-08T04:31:41.856Z,16.27
2019-06-08T04:34:33.579Z,16.35
2019-06-08T04:37:00.678Z,16.41
2019-06-08T04:39:27.750Z,16.59
2019-06-08T04:41:54.814Z,16.77
2019-06-08T04:44:21.877Z,16.89
2019-06-08T04:46:49.533Z,17.01
2019-06-08T04:49:16.797Z,17.13
2019-06-08T04:51:45.230Z,17.24
2019-06-08T04:54:14.575Z,17.33
2019-06-08T04:56:42.808Z,17.28
2019-06-08T05:14:41.434Z,17.15
2019-06-08T05:17:08.495Z,17.31
2019-06-08T05:19:35.750Z,17.14
2019-06-08T05:22:03.179Z,17.02
2019-06-08T05:24:30.248Z,16.83
2019-06-08T05:26:57.316Z,16.81
2019-06-08T05:29:24.366Z,16.87
2019-06-08T05:31:51.419Z,16.95
2019-06-08T05:34:18.605Z,16.99
2019-06-08T05:36:45.670Z,17.03
2019-06-08T05:39:12.731Z,16.97
2019-06-08T05:41:39.843Z,16.94
2019-06-08T05:44:06.913Z,16.86
2019-06-08T05:46:33.979Z,16.87
2019-06-08T05:49:01.023Z,17.00
2019-06-08T05:51:28.095Z,17.02
2019-06-08T05:53:55.163Z,17.11
2019-06-08T05:56:24.395Z,17.13
2019-06-08T05:58:51.469Z,17.13
2019-06-08T06:01:18.561Z,17.21
2019-06-08T06:03:46.556Z,17.34
2019-06-08T06:06:13.673Z,17.40
2019-06-08T06:08:40.752Z,17.22
2019-06-08T06:11:07.811Z,17.25
2019-06-08T06:13:34.907Z,17.30
2019-06-08T06:16:01.970Z,17.40
2019-06-08T06:18:29.076Z,17.31
2019-06-08T06:21:09.809Z,17.39
2019-06-08T06:23:45.238Z,17.31
2019-06-08T06:26:12.418Z,17.23
2019-06-08T06:28:39.497Z,17.29
2019-06-08T06:31:06.766Z,17.27
2019-06-08T06:33:33.820Z,17.33
2019-06-08T06:36:00.927Z,17.40
2019-06-08T06:38:27.999Z,17.32
2019-06-08T06:40:55.068Z,17.30
2019-06-08T06:43:22.170Z,17.28
2019-06-08T06:45:49.978Z,17.35
2019-06-08T06:48:37.199Z,17.38
2019-06-08T06:51:04.269Z,17.51
2019-06-08T06:53:31.435Z,17.57
2019-06-08T06:55:58.494Z,17.56
2019-06-08T06:58:25.588Z,17.66
2019-06-08T07:00:53.772Z,17.62
2019-06-08T07:03:20.891Z,17.51
2019-06-08T07:05:47.956Z,17.48
2019-06-08T07:08:15.018Z,17.59
2019-06-08T07:10:42.114Z,17.62
2019-06-08T07:13:09.222Z,17.54
2019-06-08T07:15:41.449Z,17.54
2019-06-08T07:18:05.280Z,17.48
2019-06-08T07:20:32.385Z,17.54
2019-06-08T07:22:59.470Z,17.57
2019-06-08T07:25:26.505Z,17.64
2019-06-08T07:30:54.931Z,17.76
2019-06-08T07:33:41.692Z,17.77
2019-06-08T07:36:08.808Z,17.96
2019-06-08T07:38:35.876Z,18.02
2019-06-08T07:41:02.946Z,17.91
2019-06-08T07:43:30.016Z,17.98
2019-06-08T07:45:58.411Z,18.07
2019-06-08T07:51:26.889Z,18.02
2019-06-08T07:53:55.620Z,18.06
2019-06-08T07:56:50.117Z,18.21
2019-06-08T07:59:36.275Z,18.36
2019-06-08T08:02:03.367Z,18.42
2019-06-08T08:04:30.471Z,18.27
2019-06-08T08:06:58.771Z,18.39
2019-06-08T08:09:57.020Z,18.54
2019-06-08T08:12:49.293Z,18.76
2019-06-08T08:15:16.781Z,18.80
2019-06-08T08:17:43.846Z,18.85
2019-06-08T08:20:52.963Z,18.92
2019-06-08T08:23:47.879Z,19.24
2019-06-08T09:16:02.344Z,21.18
2019-06-08T09:18:28.656Z,21.28
2019-06-08T09:20:58.909Z,21.40
2019-06-08T09:23:27.824Z,21.23
2019-06-08T09:25:57.119Z,21.10
2019-06-08T09:28:22.955Z,21.12
2019-06-08T09:30:50.045Z,21.30
2019-06-08T09:33:18.756Z,21.56
2019-06-08T09:35:47.907Z,21.77
2019-06-08T09:38:14.975Z,21.69
2019-06-08T09:40:42.084Z,21.11
2019-06-08T09:43:13.065Z,21.16
2019-06-08T09:45:38.309Z,20.95
2019-06-08T09:48:08.815Z,21.03
2019-06-08T09:50:34.770Z,20.88
2019-06-08T09:53:14.910Z,21.16
2019-06-08T09:55:30.894Z,21.23
2019-06-08T09:58:01.907Z,21.34
2019-06-08T10:00:29.329Z,21.52
2019-06-08T10:02:59.624Z,21.48
2019-06-08T10:05:27.494Z,21.42
2019-06-08T10:07:58.709Z,21.43
2019-06-08T10:10:24.398Z,21.24
2019-06-08T10:12:51.487Z,21.12
2019-06-08T10:15:18.578Z,21.35
2019-06-08T10:17:47.618Z,21.37
2019-06-08T10:20:18.129Z,21.37
2019-06-08T10:22:44.354Z,21.16
2019-06-08T10:25:12.343Z,21.45
2019-06-08T10:27:39.467Z,21.61
2019-06-08T10:30:09.893Z,21.77
2019-06-08T10:32:38.161Z,21.72
2019-06-08T10:35:07.158Z,21.66
2019-06-08T10:37:34.424Z,21.58
2019-06-08T10:40:03.764Z,21.63
2019-06-08T10:42:30.523Z,21.25
2019-06-08T10:45:02.731Z,21.23
2019-06-08T10:47:29.515Z,21.35
2019-06-08T10:49:55.591Z,21.57
2019-06-08T10:52:22.671Z,21.72
2019-06-08T10:54:49.872Z,21.93
2019-06-08T10:57:18.218Z,22.17
2019-06-08T10:59:48.123Z,22.06
2019-06-08T11:02:14.909Z,22.02
2019-06-08T11:04:43.370Z,22.24
2019-06-08T11:07:15.450Z,22.33
2019-06-08T11:09:40.695Z,22.76
2019-06-08T11:12:14.350Z,23.20
2019-06-08T11:14:38.214Z,23.31
2019-06-08T11:17:09.574Z,23.33
2019-06-08T11:19:37.642Z,23.66
2019-06-08T11:22:11.789Z,24.02
2019-06-08T11:24:33.863Z,24.11
2019-06-08T11:27:01.285Z,24.58
2019-06-08T11:29:30.759Z,25.13
2019-06-08T11:31:58.680Z,25.55
2019-06-08T11:34:28.730Z,25.50
2019-06-08T11:36:55.502Z,26.03
2019-06-08T11:39:22.633Z,26.94
2019-06-08T11:41:49.928Z,26.70
2019-06-08T11:44:17.867Z,27.21
2019-06-08T11:46:47.609Z,27.91
2019-06-08T11:49:15.380Z,27.68
2019-06-08T11:51:43.421Z,28.29
2019-06-08T11:54:27.577Z,27.62
2019-06-08T11:56:40.393Z,27.91
2019-06-08T11:59:07.592Z,27.33
2019-06-08T12:01:34.673Z,27.70
2019-06-08T12:04:01.765Z,28.15
2019-06-08T12:06:28.816Z,27.52
2019-06-08T12:08:57.380Z,27.66
2019-06-08T12:11:25.262Z,28.25
2019-06-08T12:13:52.483Z,28.61
2019-06-08T12:16:22.327Z,28.81
2019-06-08T12:18:49.368Z,29.57
2019-06-08T12:21:18.553Z,29.62
2019-06-08T12:23:45.635Z,29.78
2019-06-08T12:26:15.083Z,28.77
2019-06-08T12:28:42.197Z,28.54
2019-06-08T12:31:14.147Z,28.73
2019-06-08T12:33:39.199Z,28.60
2019-06-08T12:36:09.149Z,28.29
2019-06-08T12:38:37.936Z,28.49
2019-06-08T12:41:09.249Z,28.44
2019-06-08T12:43:34.841Z,28.41
2019-06-08T12:46:01.913Z,28.97
2019-06-08T12:48:29.044Z,29.40
2019-06-08T12:50:56.160Z,29.85
2019-06-08T12:53:23.282Z,28.99
2019-06-08T12:55:50.375Z,28.56
2019-06-08T12:58:21.846Z,28.17
2019-06-08T13:00:48.279Z,27.83
2019-06-08T13:03:16.717Z,27.53
2019-06-08T13:05:44.218Z,27.78
2019-06-08T13:08:11.807Z,27.75
2019-06-08T13:10:38.968Z,28.32
2019-06-08T13:13:08.052Z,28.90
2019-06-08T13:15:35.053Z,28.50
2019-06-08T13:18:02.154Z,28.94
2019-06-08T13:20:29.319Z,28.40
2019-06-08T13:22:57.518Z,28.94
2019-06-08T13:25:37.609Z,29.84
2019-06-08T13:27:54.826Z,30.71
2019-06-08T13:30:25.889Z,30.27
2019-06-08T13:32:50.888Z,30.53
2019-06-08T13:35:20.747Z,30.90
2019-06-08T13:37:47.470Z,31.05
2019-06-08T13:40:15.161Z,31.51
2019-06-08T13:42:42.468Z,31.27
2019-06-08T13:45:09.726Z,31.73
2019-06-08T13:47:40.932Z,32.24
2019-06-08T13:50:08.250Z,31.21
2019-06-08T13:52:35.198Z,31.15
2019-06-08T13:55:02.531Z,31.17
2019-06-08T13:57:29.671Z,30.69
2019-06-08T13:59:57.861Z,30.68
2019-06-08T14:02:29.076Z,30.54
2019-06-08T14:04:54.092Z,30.81
2019-06-08T14:07:26.856Z,30.40
2019-06-08T14:09:50.169Z,31.19
2019-06-08T14:12:19.783Z,31.43
2019-06-08T14:14:47.883Z,30.52
2019-06-08T14:17:15.474Z,29.98
2019-06-08T14:19:42.661Z,30.09
2019-06-08T14:22:10.668Z,30.75
2019-06-08T14:24:37.964Z,31.04
2019-06-08T14:27:05.083Z,30.77
2019-06-08T14:29:32.181Z,30.21
2019-06-08T14:31:59.253Z,29.95
2019-06-08T14:34:29.024Z,29.65
2019-06-08T14:36:55.382Z,29.08
2019-06-08T14:39:23.118Z,29.60
2019-06-08T14:41:51.442Z,29.11
2019-06-08T14:44:20.800Z,29.34
2019-06-08T14:46:48.068Z,29.84
2019-06-08T14:49:15.174Z,30.77
2019-06-08T14:51:51.513Z,31.00
2019-06-08T14:54:24.622Z,31.33
2019-06-08T14:56:48.211Z,31.60
2019-06-08T14:59:15.373Z,31.99
2019-06-08T15:01:42.807Z,31.97
2019-06-08T15:04:10.027Z,32.08
2019-06-08T15:06:38.230Z,31.83
2019-06-08T15:09:05.573Z,31.74
2019-06-08T15:11:35.136Z,31.51
2019-06-08T15:14:01.681Z,30.97
2019-06-08T15:16:32.458Z,31.23
2019-06-08T15:19:00.105Z,31.32
2019-06-08T15:21:30.165Z,31.64
2019-06-08T15:23:57.748Z,32.22
2019-06-08T15:26:35.891Z,32.65
2019-06-08T15:28:54.297Z,32.69
2019-06-08T15:31:21.382Z,32.97
2019-06-08T15:33:48.468Z,32.40
2019-06-08T15:36:15.513Z,31.63
2019-06-08T15:38:42.691Z,31.92
2019-06-08T15:41:09.778Z,31.90
2019-06-08T15:43:40.065Z,30.98
2019-06-08T15:46:08.311Z,31.09
2019-06-08T15:48:34.934Z,31.27
2019-06-08T15:51:02.057Z,31.21
2019-06-08T15:53:31.240Z,31.08
2019-06-08T15:55:58.416Z,31.33
2019-06-08T15:58:26.851Z,31.47
2019-06-08T16:00:55.964Z,31.42
2019-06-08T16:03:23.230Z,31.39
2019-06-08T16:05:50.343Z,31.32
2019-06-08T16:08:17.449Z,31.29
2019-06-08T16:10:44.645Z,31.10
2019-06-08T16:13:11.752Z,30.53
2019-06-08T16:15:38.898Z,30.47
2019-06-08T16:18:06.022Z,30.42
2019-06-08T16:20:33.546Z,30.89
2019-06-08T16:23:00.738Z,30.55
2019-06-08T16:25:27.904Z,30.14
2019-06-08T16:27:54.917Z,30.52
2019-06-08T16:30:22.019Z,30.49
2019-06-08T16:32:49.099Z,30.55
2019-06-08T16:35:16.187Z,30.47
2019-06-08T16:37:43.301Z,30.36
2019-06-08T16:40:13.973Z,30.46
2019-06-08T16:42:41.096Z,30.64
2019-06-08T16:45:08.334Z,30.68
2019-06-08T16:47:35.415Z,30.78
2019-06-08T16:50:02.548Z,30.04
2019-06-08T16:52:30.393Z,29.83
2019-06-08T16:54:57.584Z,29.56
2019-06-08T16:57:24.705Z,29.61
2019-06-08T16:59:51.813Z,29.51
2019-06-08T17:02:18.899Z,29.01
2019-06-08T17:04:45.991Z,28.70
2019-06-08T17:07:13.082Z,28.82
2019-06-08T17:09:40.238Z,28.65
2019-06-08T17:12:07.401Z,28.39
2019-06-08T17:14:36.130Z,27.86
2019-06-08T17:17:03.625Z,27.76
2019-06-08T17:19:31.897Z,27.37
2019-06-08T17:21:59.130Z,27.18
2019-06-08T17:24:26.276Z,26.91
2019-06-08T17:26:53.635Z,26.50
2019-06-08T17:29:20.728Z,26.49
2019-06-08T17:31:47.806Z,26.26
2019-06-08T17:34:14.894Z,26.07
2019-06-08T17:36:42.765Z,25.87
2019-06-08T17:39:10.006Z,25.59
2019-06-08T17:41:56.531Z,25.62
2019-06-08T17:45:04.463Z,25.35
2019-06-08T17:47:32.181Z,25.38
